createdAt,value
2022-12-24T00:01:42.055Z,15.15
2022-12-24T00:04:11.177Z,14.82
2022-12-24T00:06:40.270Z,14.68
2022-12-24T00:09:10.417Z,12.88
2022-12-24T00:11:39.470Z,14.20
2022-12-24T00:14:08.568Z,13.77
2022-12-24T00:16:37.696Z,13.90
2022-12-24T00:19:08.136Z,16.08
2022-12-24T00:21:37.216Z,18.10
2022-12-24T00:24:06.977Z,17.48
2022-12-24T00:26:36.400Z,18.13
2022-12-24T00:29:06.676Z,16.55
2022-12-24T00:31:35.850Z,18.13
2022-12-24T00:34:04.879Z,16.92
2022-12-24T00:36:35.460Z,14.95
2022-12-24T00:39:04.753Z,16.85
2022-12-24T00:41:33.856Z,14.07
2022-12-24T00:44:06.065Z,12.73
2022-12-24T00:46:36.110Z,14.88
2022-12-24T00:49:06.097Z,15.50
2022-12-24T00:51:37.422Z,13.98
2022-12-24T00:54:07.615Z,14.82
2022-12-24T00:56:36.725Z,14.98
2022-12-24T00:59:05.783Z,15.65
2022-12-24T01:01:35.909Z,16.50
2022-12-24T01:04:19.118Z,16.15
2022-12-24T01:06:49.553Z,17.55
2022-12-24T01:09:18.662Z,17.55
2022-12-24T01:11:47.707Z,19.20
2022-12-24T01:14:16.727Z,18.70
2022-12-24T01:16:45.861Z,18.88
2022-12-24T01:19:14.918Z,17.80
2022-12-24T01:21:43.981Z,18.73
2022-12-24T01:24:17.262Z,17.20
2022-12-24T01:26:46.306Z,17.15
2022-12-24T01:29:15.385Z,16.73
2022-12-24T01:31:44.470Z,16.75
2022-12-24T01:34:13.564Z,16.13
2022-12-24T01:36:42.583Z,15.80
2022-12-24T01:39:11.713Z,15.60
2022-12-24T01:41:59.478Z,17.05
2022-12-24T01:44:36.632Z,17.58
2022-12-24T01:47:13.435Z,17.88
2022-12-24T01:49:48.008Z,17.60
2022-12-24T01:52:22.057Z,15.40
2022-12-24T01:54:56.473Z,13.43
2022-12-24T01:57:31.689Z,13.55
2022-12-24T02:00:07.688Z,15.50
2022-12-24T02:02:38.727Z,16.38
2022-12-24T02:05:13.904Z,16.00
2022-12-24T02:07:44.287Z,15.95
2022-12-24T02:10:16.284Z,17.60
2022-12-24T02:12:48.529Z,15.57
2022-12-24T02:15:20.270Z,15.60
2022-12-24T02:18:02.049Z,13.98
2022-12-24T02:20:52.860Z,13.57
2022-12-24T02:23:54.521Z,12.73
2022-12-24T02:26:43.153Z,12.93
2022-12-24T02:29:39.529Z,13.93
2022-12-24T02:32:16.089Z,14.55
2022-12-24T02:34:50.572Z,14.90
2022-12-24T02:37:24.498Z,14.18
2022-12-24T02:39:58.772Z,14.30
2022-12-24T02:42:34.190Z,16.23
2022-12-24T02:45:07.056Z,14.48
2022-12-24T02:47:39.206Z,14.20
2022-12-24T02:50:12.102Z,15.13
2022-12-24T02:52:43.986Z,16.85
2022-12-24T02:55:17.016Z,17.77
2022-12-24T02:58:26.382Z,16.80
2022-12-24T03:01:18.383Z,17.33
2022-12-24T03:04:05.409Z,16.55
2022-12-24T03:06:44.347Z,17.17
2022-12-24T03:09:21.099Z,18.52
2022-12-24T03:12:00.389Z,16.13
2022-12-24T03:14:30.718Z,17.45
2022-12-24T03:17:00.668Z,17.40
2022-12-24T03:19:32.709Z,15.65
2022-12-24T03:22:05.768Z,15.00
2022-12-24T03:24:34.896Z,15.77
2022-12-24T03:27:05.719Z,14.40
2022-12-24T03:29:35.061Z,14.70
2022-12-24T03:32:05.978Z,13.68
2022-12-24T03:34:36.510Z,13.20
2022-12-24T03:37:05.766Z,13.35
2022-12-24T03:39:34.992Z,15.27
2022-12-24T03:42:04.235Z,15.82
2022-12-24T03:44:33.240Z,16.88
2022-12-24T03:47:02.397Z,14.63
2022-12-24T03:49:31.867Z,16.52
2022-12-24T03:52:02.682Z,14.35
2022-12-24T03:54:32.017Z,15.95
2022-12-24T03:57:01.056Z,13.43
2022-12-24T03:59:30.167Z,16.25
2022-12-24T04:01:59.502Z,14.70
2022-12-24T04:04:28.718Z,17.90
2022-12-24T04:06:57.770Z,17.58
2022-12-24T04:09:28.243Z,16.98
2022-12-24T04:11:57.342Z,15.93
2022-12-24T04:14:26.589Z,16.05
2022-12-24T04:16:55.686Z,15.70
2022-12-24T04:19:24.788Z,15.57
2022-12-24T04:21:53.840Z,14.15
2022-12-24T04:24:23.020Z,15.07
2022-12-24T04:26:53.455Z,16.10
2022-12-24T04:29:22.736Z,17.38
2022-12-24T04:31:51.899Z,16.70
2022-12-24T04:34:20.988Z,15.57
2022-12-24T04:36:50.027Z,15.38
2022-12-24T04:39:19.122Z,15.07
2022-12-24T04:41:48.126Z,15.57
2022-12-24T04:44:18.577Z,16.30
2022-12-24T04:46:47.639Z,16.02
2022-12-24T04:49:16.756Z,14.30
2022-12-24T04:51:45.754Z,14.35
2022-12-24T04:54:14.836Z,16.48
2022-12-24T04:56:43.849Z,14.73
2022-12-24T04:59:12.930Z,14.80
2022-12-24T05:01:43.508Z,14.60
2022-12-24T05:04:12.680Z,14.30
2022-12-24T05:06:41.773Z,13.07
2022-12-24T05:09:10.749Z,14.05
2022-12-24T05:11:39.857Z,15.23
2022-12-24T05:14:08.857Z,17.58
2022-12-24T05:16:38.810Z,19.15
2022-12-24T05:19:09.266Z,18.70
2022-12-24T05:21:38.378Z,17.42
2022-12-24T05:24:25.959Z,16.38
2022-12-24T05:26:58.490Z,15.73
2022-12-24T05:29:27.614Z,16.25
2022-12-24T05:31:56.567Z,15.80
2022-12-24T05:34:27.047Z,16.23
2022-12-24T05:36:56.226Z,16.67
2022-12-24T05:39:25.420Z,15.02
2022-12-24T05:41:54.448Z,16.45
2022-12-24T05:44:23.552Z,17.30
2022-12-24T05:46:52.598Z,18.67
2022-12-24T05:49:21.672Z,19.60
2022-12-24T05:51:52.162Z,18.58
2022-12-24T05:54:21.319Z,18.48
2022-12-24T05:56:50.439Z,16.70
2022-12-24T05:59:19.437Z,17.58
2022-12-24T06:01:48.713Z,14.60
2022-12-24T06:04:21.668Z,13.40
2022-12-24T06:06:55.374Z,13.32
2022-12-24T06:09:24.431Z,12.45
2022-12-24T06:11:53.509Z,13.20
2022-12-24T06:14:22.548Z,14.35
2022-12-24T06:16:51.583Z,14.35
2022-12-24T06:19:20.837Z,15.05
2022-12-24T06:21:50.065Z,15.52
2022-12-24T06:24:21.497Z,16.95
2022-12-24T06:26:50.536Z,18.38
2022-12-24T06:29:19.600Z,20.08
2022-12-24T06:31:48.716Z,18.15
2022-12-24T06:34:17.833Z,16.17
2022-12-24T06:36:47.031Z,18.42
2022-12-24T06:39:16.288Z,16.85
2022-12-24T06:41:46.767Z,14.63
2022-12-24T06:44:15.802Z,15.23
2022-12-24T06:46:45.138Z,15.45
2022-12-24T06:49:14.211Z,17.65
2022-12-24T06:51:43.396Z,16.52
2022-12-24T06:54:12.430Z,16.83
2022-12-24T06:56:41.603Z,18.20
2022-12-24T06:59:12.056Z,16.92
2022-12-24T07:01:41.438Z,17.45
2022-12-24T07:04:16.204Z,16.50
2022-12-24T07:06:48.865Z,15.75
2022-12-24T07:09:17.957Z,15.57
2022-12-24T07:11:47.031Z,15.18
2022-12-24T07:14:17.524Z,15.45
2022-12-24T07:16:46.699Z,16.42
2022-12-24T07:19:16.489Z,18.45
2022-12-24T07:21:45.821Z,18.45
2022-12-24T07:24:14.884Z,17.67
2022-12-24T07:26:44.089Z,16.33
2022-12-24T07:29:13.228Z,14.50
2022-12-24T07:31:43.835Z,13.15
2022-12-24T07:34:12.934Z,14.02
2022-12-24T07:36:41.963Z,16.20
2022-12-24T07:39:11.189Z,13.60
2022-12-24T07:41:41.925Z,12.63
2022-12-24T07:44:13.813Z,13.23
2022-12-24T07:46:45.103Z,11.57
2022-12-24T07:49:14.291Z,11.70
2022-12-24T07:51:43.476Z,12.30
2022-12-24T07:54:12.675Z,11.30
2022-12-24T07:56:41.776Z,10.90
2022-12-24T07:59:13.582Z,11.73
2022-12-24T08:04:26.559Z,12.18
2022-12-24T08:06:55.627Z,11.70
2022-12-24T08:09:26.584Z,11.95
2022-12-24T08:11:55.674Z,11.90
2022-12-24T08:14:25.044Z,13.43
2022-12-24T08:16:54.146Z,11.52
2022-12-24T08:19:23.519Z,13.07
2022-12-24T08:21:56.029Z,11.95
2022-12-24T08:24:25.903Z,11.88
2022-12-24T08:26:54.961Z,12.75
2022-12-24T08:29:24.525Z,16.23
2022-12-24T08:31:53.887Z,12.80
2022-12-24T08:34:22.995Z,12.65
2022-12-24T08:36:53.454Z,13.48
2022-12-24T08:39:22.783Z,13.40
2022-12-24T08:41:52.009Z,12.55
2022-12-24T08:44:21.539Z,12.70
2022-12-24T08:46:50.658Z,13.40
2022-12-24T08:49:19.836Z,13.32
2022-12-24T08:51:49.179Z,13.45
2022-12-24T08:54:19.856Z,13.73
2022-12-24T08:56:48.961Z,12.73
2022-12-24T08:59:21.962Z,12.00
2022-12-24T09:01:51.194Z,10.93
2022-12-24T09:04:20.700Z,13.88
2022-12-24T09:06:49.775Z,12.30
2022-12-24T09:09:20.333Z,11.60
2022-12-24T09:11:49.397Z,10.95
2022-12-24T09:14:19.221Z,9.77
2022-12-24T09:16:48.444Z,10.52
2022-12-24T09:19:17.752Z,10.35
2022-12-24T09:21:46.910Z,10.73
2022-12-24T09:24:16.087Z,9.93
2022-12-24T09:26:55.513Z,11.48
2022-12-24T09:29:26.894Z,11.43
2022-12-24T09:31:57.964Z,13.57
2022-12-24T09:34:30.611Z,10.70
2022-12-24T09:37:02.519Z,10.60
2022-12-24T09:39:31.843Z,9.60
2022-12-24T09:42:18.619Z,10.07
2022-12-24T09:44:52.791Z,9.50
2022-12-24T09:47:29.227Z,10.20
2022-12-24T09:50:02.222Z,9.93
2022-12-24T09:52:36.369Z,9.80
2022-12-24T09:55:17.467Z,10.32
2022-12-24T09:57:51.727Z,9.80
2022-12-24T10:00:25.217Z,9.02
2022-12-24T10:02:54.489Z,9.63
2022-12-24T10:05:35.586Z,9.70
2022-12-24T10:08:19.746Z,11.23
2022-12-24T10:10:54.123Z,8.75
2022-12-24T10:13:49.994Z,9.35
2022-12-24T10:16:26.782Z,9.82
2022-12-24T10:19:04.416Z,9.27
2022-12-24T10:21:45.501Z,10.63
2022-12-24T10:24:20.146Z,9.10
2022-12-24T10:26:57.381Z,9.75
2022-12-24T10:29:31.893Z,9.65
2022-12-24T10:32:17.378Z,9.77
2022-12-24T10:34:52.707Z,9.85
2022-12-24T10:37:26.384Z,8.82
2022-12-24T10:39:56.718Z,8.80
2022-12-24T10:42:36.264Z,8.43
2022-12-24T10:45:09.461Z,8.55
2022-12-24T10:47:41.368Z,9.10
2022-12-24T10:50:20.023Z,8.10
2022-12-24T10:52:56.705Z,7.35
2022-12-24T10:55:28.257Z,7.65
2022-12-24T10:58:06.110Z,7.90
2022-12-24T11:00:39.516Z,7.68
2022-12-24T11:03:26.174Z,8.00
2022-12-24T11:06:21.243Z,8.20
2022-12-24T11:08:50.399Z,7.93
2022-12-24T11:11:23.561Z,8.18
2022-12-24T11:13:57.789Z,7.95
2022-12-24T11:16:33.427Z,8.00
2022-12-24T11:19:05.148Z,8.02
2022-12-24T11:21:39.236Z,7.88
2022-12-24T11:24:25.309Z,7.60
2022-12-24T11:27:18.459Z,7.03
2022-12-24T11:29:48.496Z,7.03
2022-12-24T11:32:22.777Z,7.50
2022-12-24T11:34:52.328Z,8.32
2022-12-24T11:37:25.296Z,8.70
2022-12-24T11:39:57.348Z,8.77
2022-12-24T11:42:33.966Z,9.25
2022-12-24T11:45:07.278Z,9.32
2022-12-24T11:47:43.603Z,8.75
2022-12-24T11:50:26.771Z,8.65
2022-12-24T11:53:17.259Z,8.45
2022-12-24T11:55:52.677Z,7.72
2022-12-24T11:58:29.966Z,8.68
2022-12-24T12:01:15.432Z,7.38
2022-12-24T12:03:50.626Z,8.00
2022-12-24T12:06:30.118Z,10.07
2022-12-24T12:09:06.791Z,7.30
2022-12-24T12:11:36.885Z,7.05
2022-12-24T12:14:06.509Z,6.50
2022-12-24T12:17:05.218Z,6.00
2022-12-24T12:19:47.232Z,7.30
2022-12-24T12:22:27.364Z,7.47
2022-12-24T12:24:59.979Z,7.40
2022-12-24T12:27:36.974Z,7.20
2022-12-24T12:30:15.561Z,8.27
2022-12-24T12:32:52.851Z,7.22
2022-12-24T12:35:27.481Z,8.00
2022-12-24T12:38:00.884Z,7.57
2022-12-24T12:41:03.507Z,8.27
2022-12-24T12:44:22.607Z,7.35
2022-12-24T12:47:11.129Z,7.80
2022-12-24T12:49:51.052Z,9.05
2022-12-24T12:52:42.193Z,10.73
2022-12-24T12:55:34.681Z,9.52
2022-12-24T12:58:13.651Z,9.18
2022-12-24T13:00:46.305Z,8.95
2022-12-24T13:03:47.260Z,8.93
2022-12-24T13:06:52.500Z,9.73
2022-12-24T13:09:46.641Z,9.20
2022-12-24T13:12:41.142Z,9.90
2022-12-24T13:15:37.717Z,13.20
2022-12-24T13:18:30.463Z,12.30
2022-12-24T13:20:59.767Z,9.80
2022-12-24T13:23:29.539Z,8.60
2022-12-24T13:26:00.708Z,9.23
2022-12-24T13:28:38.797Z,10.20
2022-12-24T13:31:29.903Z,11.63
2022-12-24T13:34:04.454Z,11.38
2022-12-24T13:37:04.329Z,11.93
2022-12-24T13:40:17.293Z,16.25
2022-12-24T13:43:10.091Z,14.43
2022-12-24T13:45:51.010Z,14.70
2022-12-24T13:48:30.433Z,13.32
2022-12-24T13:51:03.062Z,13.30
2022-12-24T13:53:35.266Z,11.77
2022-12-24T13:56:09.985Z,12.68
2022-12-24T13:58:43.978Z,12.10
2022-12-24T14:01:16.227Z,11.85
2022-12-24T14:03:49.073Z,12.50
2022-12-24T14:06:26.111Z,13.07
2022-12-24T14:08:58.344Z,12.10
2022-12-24T14:11:34.532Z,12.52
2022-12-24T14:14:29.871Z,12.90
2022-12-24T14:17:01.545Z,12.80
2022-12-24T14:19:40.219Z,13.05
2022-12-24T14:22:30.116Z,13.30
2022-12-24T14:25:02.687Z,12.40
2022-12-24T14:27:40.614Z,11.73
2022-12-24T14:30:22.883Z,10.45
2022-12-24T14:32:54.140Z,11.10
2022-12-24T14:35:26.948Z,8.60
2022-12-24T14:38:02.746Z,12.57
2022-12-24T14:40:39.936Z,10.10
2022-12-24T14:43:21.601Z,11.80
2022-12-24T14:46:01.435Z,13.45
2022-12-24T14:48:40.344Z,16.05
2022-12-24T14:51:18.231Z,14.95
2022-12-24T14:54:27.950Z,22.20
2022-12-24T14:57:26.323Z,14.15
2022-12-24T14:59:57.881Z,13.32
2022-12-24T15:02:47.637Z,10.48
2022-12-24T15:05:20.655Z,10.85
2022-12-24T15:07:57.612Z,10.63
2022-12-24T15:10:33.969Z,9.57
2022-12-24T15:13:06.895Z,9.02
2022-12-24T15:15:36.687Z,11.10
2022-12-24T15:18:07.479Z,11.43
2022-12-24T15:20:36.612Z,12.80
2022-12-24T15:23:06.746Z,15.48
2022-12-24T15:25:35.827Z,27.33
2022-12-24T15:28:15.430Z,22.98
2022-12-24T15:30:44.853Z,17.35
2022-12-24T15:33:15.509Z,16.50
2022-12-24T15:35:53.728Z,17.88
2022-12-24T15:38:34.280Z,10.00
2022-12-24T15:41:06.484Z,7.40
2022-12-24T15:43:41.445Z,6.90
2022-12-24T15:46:10.650Z,7.05
2022-12-24T15:48:46.402Z,8.25
2022-12-24T15:51:25.221Z,8.85
2022-12-24T15:54:02.426Z,8.30
2022-12-24T15:56:36.856Z,8.20
2022-12-24T15:59:32.042Z,8.35
2022-12-24T16:02:48.895Z,9.27
2022-12-24T16:05:35.809Z,10.60
2022-12-24T16:08:25.286Z,10.30
2022-12-24T16:11:09.178Z,10.88
2022-12-24T16:13:41.823Z,10.85
2022-12-24T16:16:14.393Z,10.93
2022-12-24T16:18:52.908Z,10.45
2022-12-24T16:21:29.502Z,11.27
2022-12-24T16:24:06.379Z,13.82
2022-12-24T16:26:36.256Z,10.65
2022-12-24T16:29:05.395Z,12.35
2022-12-24T16:31:38.014Z,17.45
2022-12-24T16:34:07.562Z,16.77
2022-12-24T16:36:38.004Z,12.00
2022-12-24T16:39:20.958Z,9.80
2022-12-24T16:42:07.846Z,9.40
2022-12-24T16:44:37.227Z,9.85
2022-12-24T16:47:08.663Z,13.20
2022-12-24T16:49:39.448Z,19.30
2022-12-24T16:52:18.256Z,14.45
2022-12-24T16:54:47.302Z,14.85
2022-12-24T16:57:16.644Z,14.38
2022-12-24T16:59:45.938Z,19.35
2022-12-24T17:02:18.406Z,17.38
2022-12-24T17:04:48.286Z,12.85
2022-12-24T17:07:21.592Z,11.40
2022-12-24T17:09:50.676Z,10.50
2022-12-24T17:12:21.407Z,9.32
2022-12-24T17:14:50.760Z,9.55
2022-12-24T17:17:25.805Z,8.77
2022-12-24T17:19:56.006Z,11.73
2022-12-24T17:22:27.822Z,13.05
2022-12-24T17:24:57.692Z,18.98
2022-12-24T17:27:26.783Z,17.83
2022-12-24T17:29:56.012Z,30.90
2022-12-24T17:32:27.439Z,38.17
2022-12-24T17:34:56.855Z,34.85
2022-12-24T17:37:27.517Z,31.10
2022-12-24T17:40:00.203Z,21.08
2022-12-24T17:42:29.411Z,17.85
2022-12-24T17:44:58.524Z,29.08
2022-12-24T17:47:27.557Z,19.75
2022-12-24T17:49:56.753Z,16.52
2022-12-24T17:52:27.199Z,17.48
2022-12-24T17:54:56.335Z,26.63
2022-12-24T17:57:25.412Z,36.40
2022-12-24T17:59:54.563Z,24.67
2022-12-24T18:02:23.780Z,22.98
2022-12-24T18:04:53.094Z,22.83
2022-12-24T18:07:22.240Z,24.58
2022-12-24T18:09:52.883Z,23.17
2022-12-24T18:12:22.024Z,25.38
2022-12-24T18:14:51.188Z,28.48
2022-12-24T18:17:20.463Z,23.33
2022-12-24T18:19:49.980Z,17.13
2022-12-24T18:22:19.159Z,12.32
2022-12-24T18:24:48.403Z,11.48
2022-12-24T18:27:19.096Z,13.50
2022-12-24T18:29:48.319Z,13.32
2022-12-24T18:32:18.092Z,13.15
2022-12-24T18:34:47.320Z,13.90
2022-12-24T18:37:16.489Z,14.38
2022-12-24T18:39:45.778Z,13.18
2022-12-24T18:42:15.619Z,11.18
2022-12-24T18:44:46.864Z,11.60
2022-12-24T18:47:16.340Z,10.40
2022-12-24T18:49:45.480Z,12.50
2022-12-24T18:52:22.451Z,14.10
2022-12-24T18:54:52.173Z,14.25
2022-12-24T18:57:21.354Z,16.45
2022-12-24T18:59:53.184Z,15.27
2022-12-24T19:02:22.321Z,16.20
2022-12-24T19:04:51.879Z,18.35
2022-12-24T19:07:20.984Z,18.98
2022-12-24T19:09:50.291Z,21.15
2022-12-24T19:12:22.502Z,17.98
2022-12-24T19:14:53.060Z,21.90
2022-12-24T19:17:22.304Z,17.70
2022-12-24T19:19:52.552Z,17.05
2022-12-24T19:22:21.734Z,16.55
2022-12-24T19:24:51.876Z,15.32
2022-12-24T19:27:21.246Z,13.10
2022-12-24T19:29:50.400Z,12.50
2022-12-24T19:32:21.075Z,12.30
2022-12-24T19:34:50.207Z,12.00
2022-12-24T19:37:19.328Z,12.20
2022-12-24T19:39:48.759Z,13.90
2022-12-24T19:42:18.106Z,12.18
2022-12-24T19:44:47.178Z,13.30
2022-12-24T19:47:16.511Z,14.13
2022-12-24T19:49:47.709Z,13.65
2022-12-24T19:52:16.963Z,12.43
2022-12-24T19:54:46.192Z,13.68
2022-12-24T19:57:15.277Z,12.60
2022-12-24T19:59:45.387Z,13.18
2022-12-24T20:02:14.810Z,11.93
2022-12-24T20:04:44.319Z,11.80
2022-12-24T20:07:14.896Z,11.27
2022-12-24T20:09:44.014Z,10.95
2022-12-24T20:12:13.181Z,12.70
2022-12-24T20:14:42.506Z,12.60
2022-12-24T20:17:12.184Z,14.85
2022-12-24T20:19:41.538Z,14.30
2022-12-24T20:22:10.951Z,13.70
2022-12-24T20:24:41.800Z,13.95
2022-12-24T20:27:11.717Z,14.25
2022-12-24T20:29:40.911Z,14.48
2022-12-24T20:32:10.049Z,13.68
2022-12-24T20:34:39.301Z,13.35
2022-12-24T20:37:08.848Z,12.95
2022-12-24T20:39:38.103Z,12.88
2022-12-24T20:42:08.791Z,14.23
2022-12-24T20:44:38.337Z,14.25
2022-12-24T20:47:07.486Z,13.07
2022-12-24T20:49:36.554Z,13.07
2022-12-24T20:52:06.238Z,14.40
2022-12-24T20:54:35.543Z,13.43
2022-12-24T20:57:05.148Z,15.32
2022-12-24T20:59:38.815Z,14.07
2022-12-24T21:02:09.088Z,14.38
2022-12-24T21:04:40.063Z,14.80
2022-12-24T21:07:09.730Z,13.80
2022-12-24T21:09:39.515Z,14.73
2022-12-24T21:12:29.388Z,14.82
2022-12-24T21:15:00.329Z,14.93
2022-12-24T21:17:30.330Z,16.88
2022-12-24T21:20:00.590Z,18.13
2022-12-24T21:22:29.823Z,19.40
2022-12-24T21:24:58.891Z,19.60
2022-12-24T21:27:30.228Z,19.92
2022-12-24T21:30:03.353Z,18.23
2022-12-24T21:32:32.855Z,18.60
2022-12-24T21:35:02.086Z,19.00
2022-12-24T21:37:31.314Z,18.25
2022-12-24T21:40:00.745Z,17.50
2022-12-24T21:42:32.609Z,16.05
2022-12-24T21:45:04.741Z,16.85
2022-12-24T21:47:35.241Z,17.35
2022-12-24T21:50:25.624Z,17.15
2022-12-24T21:53:19.703Z,16.17
2022-12-24T21:55:48.116Z,15.18
2022-12-24T21:58:18.619Z,13.65
2022-12-24T22:00:49.107Z,14.73
2022-12-24T22:03:18.255Z,13.82
2022-12-24T22:05:47.534Z,12.98
2022-12-24T22:08:33.999Z,13.30
2022-12-24T22:11:22.651Z,13.18
2022-12-24T22:13:51.767Z,12.73
2022-12-24T22:16:22.301Z,13.27
2022-12-24T22:18:52.155Z,12.75
2022-12-24T22:21:21.607Z,12.65
2022-12-24T22:23:50.947Z,11.18
2022-12-24T22:26:20.353Z,11.13
2022-12-24T22:28:49.704Z,11.15
2022-12-24T22:31:19.950Z,12.18
2022-12-24T22:33:50.721Z,13.15
2022-12-24T22:36:20.450Z,12.93
2022-12-24T22:38:49.584Z,12.82
2022-12-24T22:41:19.128Z,12.35
2022-12-24T22:43:50.158Z,12.40
2022-12-24T22:46:19.477Z,13.13
2022-12-24T22:48:50.144Z,13.88
2022-12-24T22:51:22.658Z,13.07
2022-12-24T22:53:51.768Z,12.45
2022-12-24T22:56:23.678Z,11.48
2022-12-24T22:58:55.348Z,12.68
2022-12-24T23:01:34.638Z,13.13
2022-12-24T23:04:08.197Z,11.52
2022-12-24T23:06:37.501Z,12.77
2022-12-24T23:09:09.234Z,12.27
2022-12-24T23:11:38.455Z,11.85
2022-12-24T23:14:25.053Z,11.85
2022-12-24T23:16:54.651Z,12.93
2022-12-24T23:19:25.195Z,11.60
2022-12-24T23:21:54.368Z,12.98
2022-12-24T23:24:23.745Z,12.15
2022-12-24T23:26:52.944Z,12.85
2022-12-24T23:29:22.488Z,12.18
2022-12-24T23:31:51.580Z,12.32
2022-12-24T23:34:20.723Z,12.77
2022-12-24T23:36:51.254Z,12.40
2022-12-24T23:39:20.476Z,12.95
2022-12-24T23:41:49.732Z,13.80
2022-12-24T23:44:19.325Z,11.95
2022-12-24T23:46:48.458Z,12.95
2022-12-24T23:49:17.750Z,11.90
2022-12-24T23:51:46.882Z,11.93
2022-12-24T23:54:17.546Z,11.63
2022-12-24T23:56:47.035Z,12.10
2022-12-24T23:59:16.120Z,12.65
